sensor_id;sensor_type;location;lat;lon;timestamp;pressure;altitude;pressure_sealevel;temperature
38114;BMP180;23926;53.222;6.354;2023-04-24T00:00:33;99567.00;;;15.00
38114;BMP180;23926;53.222;6.354;2023-04-24T00:02:59;99554.00;;;15.00
38114;BMP180;23926;53.222;6.354;2023-04-24T00:05:24;99564.00;;;15.00
38114;BMP180;23926;53.222;6.354;2023-04-24T00:07:50;99553.00;;;15.00
38114;BMP180;23926;53.222;6.354;2023-04-24T00:10:19;99566.00;;;14.90
38114;BMP180;23926;53.222;6.354;2023-04-24T00:12:45;99547.00;;;14.90
38114;BMP180;23926;53.222;6.354;2023-04-24T00:15:10;99541.00;;;15.00
38114;BMP180;23926;53.222;6.354;2023-04-24T00:17:36;99548.00;;;14.90
38114;BMP180;23926;53.222;6.354;2023-04-24T00:20:02;99550.00;;;14.90
38114;BMP180;23926;53.222;6.354;2023-04-24T00:22:30;99552.00;;;14.90
38114;BMP180;23926;53.222;6.354;2023-04-24T00:24:56;99550.00;;;15.00
38114;BMP180;23926;53.222;6.354;2023-04-24T00:27:21;99550.00;;;14.90
38114;BMP180;23926;53.222;6.354;2023-04-24T00:29:47;99525.00;;;14.90
38114;BMP180;23926;53.222;6.354;2023-04-24T00:32:13;99537.00;;;14.90
38114;BMP180;23926;53.222;6.354;2023-04-24T00:34:39;99544.00;;;14.90
38114;BMP180;23926;53.222;6.354;2023-04-24T00:37:04;99539.00;;;14.90
38114;BMP180;23926;53.222;6.354;2023-04-24T00:39:30;99530.00;;;14.90
38114;BMP180;23926;53.222;6.354;2023-04-24T00:41:55;99541.00;;;14.90
38114;BMP180;23926;53.222;6.354;2023-04-24T00:44:22;99545.00;;;14.90
38114;BMP180;23926;53.222;6.354;2023-04-24T00:46:48;99543.00;;;14.80
38114;BMP180;23926;53.222;6.354;2023-04-24T00:49:18;99544.00;;;14.80
38114;BMP180;23926;53.222;6.354;2023-04-24T00:51:43;99546.00;;;14.70
38114;BMP180;23926;53.222;6.354;2023-04-24T00:54:11;99541.00;;;14.70
38114;BMP180;23926;53.222;6.354;2023-04-24T00:56:37;99537.00;;;14.60
38114;BMP180;23926;53.222;6.354;2023-04-24T00:59:03;99544.00;;;14.60
38114;BMP180;23926;53.222;6.354;2023-04-24T01:01:29;99537.00;;;14.60
38114;BMP180;23926;53.222;6.354;2023-04-24T01:03:56;99543.00;;;14.50
38114;BMP180;23926;53.222;6.354;2023-04-24T01:06:23;99545.00;;;14.50
38114;BMP180;23926;53.222;6.354;2023-04-24T01:08:48;99542.00;;;14.50
38114;BMP180;23926;53.222;6.354;2023-04-24T01:11:14;99532.00;;;14.50
38114;BMP180;23926;53.222;6.354;2023-04-24T01:13:40;99533.00;;;14.50
38114;BMP180;23926;53.222;6.354;2023-04-24T01:16:06;99535.00;;;14.50
38114;BMP180;23926;53.222;6.354;2023-04-24T01:18:31;99523.00;;;14.50
38114;BMP180;23926;53.222;6.354;2023-04-24T01:20:58;99532.00;;;14.40
38114;BMP180;23926;53.222;6.354;2023-04-24T01:23:25;99526.00;;;14.40
38114;BMP180;23926;53.222;6.354;2023-04-24T01:25:50;99533.00;;;14.30
38114;BMP180;23926;53.222;6.354;2023-04-24T01:28:16;99522.00;;;14.30
38114;BMP180;23926;53.222;6.354;2023-04-24T01:30:43;99538.00;;;14.30
38114;BMP180;23926;53.222;6.354;2023-04-24T01:33:08;99527.00;;;14.30
38114;BMP180;23926;53.222;6.354;2023-04-24T01:35:34;99524.00;;;14.30
38114;BMP180;23926;53.222;6.354;2023-04-24T01:38:01;99522.00;;;14.30
38114;BMP180;23926;53.222;6.354;2023-04-24T01:40:27;99517.00;;;14.30
38114;BMP180;23926;53.222;6.354;2023-04-24T01:42:52;99528.00;;;14.30
38114;BMP180;23926;53.222;6.354;2023-04-24T01:45:18;99511.00;;;14.30
38114;BMP180;23926;53.222;6.354;2023-04-24T01:47:43;99518.00;;;14.30
38114;BMP180;23926;53.222;6.354;2023-04-24T01:50:10;99519.00;;;14.30
38114;BMP180;23926;53.222;6.354;2023-04-24T01:52:36;99515.00;;;14.30
38114;BMP180;23926;53.222;6.354;2023-04-24T01:55:04;99527.00;;;14.30
38114;BMP180;23926;53.222;6.354;2023-04-24T01:57:31;99527.00;;;14.30
38114;BMP180;23926;53.222;6.354;2023-04-24T01:59:56;99518.00;;;14.30
38114;BMP180;23926;53.222;6.354;2023-04-24T02:02:22;99520.00;;;14.30
38114;BMP180;23926;53.222;6.354;2023-04-24T02:04:50;99520.00;;;14.30
38114;BMP180;23926;53.222;6.354;2023-04-24T02:07:16;99514.00;;;14.30
38114;BMP180;23926;53.222;6.354;2023-04-24T02:09:41;99520.00;;;14.30
38114;BMP180;23926;53.222;6.354;2023-04-24T02:12:07;99518.00;;;14.30
38114;BMP180;23926;53.222;6.354;2023-04-24T02:14:32;99511.00;;;14.30
38114;BMP180;23926;53.222;6.354;2023-04-24T02:16:58;99512.00;;;14.30
38114;BMP180;23926;53.222;6.354;2023-04-24T02:19:23;99517.00;;;14.30
38114;BMP180;23926;53.222;6.354;2023-04-24T02:21:48;99512.00;;;14.30
38114;BMP180;23926;53.222;6.354;2023-04-24T02:24:14;99518.00;;;14.30
38114;BMP180;23926;53.222;6.354;2023-04-24T02:26:39;99508.00;;;14.30
38114;BMP180;23926;53.222;6.354;2023-04-24T02:29:05;99514.00;;;14.30
38114;BMP180;23926;53.222;6.354;2023-04-24T02:31:30;99516.00;;;14.30
38114;BMP180;23926;53.222;6.354;2023-04-24T02:33:56;99511.00;;;14.20
38114;BMP180;23926;53.222;6.354;2023-04-24T02:36:21;99508.00;;;14.20
38114;BMP180;23926;53.222;6.354;2023-04-24T02:38:46;99509.00;;;14.20
38114;BMP180;23926;53.222;6.354;2023-04-24T02:41:12;99507.00;;;14.20
38114;BMP180;23926;53.222;6.354;2023-04-24T02:43:37;99511.00;;;14.20
38114;BMP180;23926;53.222;6.354;2023-04-24T02:46:02;99515.00;;;14.20
38114;BMP180;23926;53.222;6.354;2023-04-24T02:48:28;99515.00;;;14.10
38114;BMP180;23926;53.222;6.354;2023-04-24T02:50:54;99512.00;;;14.00
38114;BMP180;23926;53.222;6.354;2023-04-24T02:53:19;99507.00;;;14.00
38114;BMP180;23926;53.222;6.354;2023-04-24T02:55:44;99514.00;;;14.00
38114;BMP180;23926;53.222;6.354;2023-04-24T02:58:11;99509.00;;;13.90
38114;BMP180;23926;53.222;6.354;2023-04-24T03:00:38;99512.00;;;14.00
38114;BMP180;23926;53.222;6.354;2023-04-24T03:03:03;99511.00;;;13.90
38114;BMP180;23926;53.222;6.354;2023-04-24T03:05:29;99515.00;;;13.80
38114;BMP180;23926;53.222;6.354;2023-04-24T03:07:55;99516.00;;;13.90
38114;BMP180;23926;53.222;6.354;2023-04-24T03:10:21;99515.00;;;13.90
38114;BMP180;23926;53.222;6.354;2023-04-24T03:12:48;99516.00;;;13.90
38114;BMP180;23926;53.222;6.354;2023-04-24T03:15:13;99516.00;;;13.80
38114;BMP180;23926;53.222;6.354;2023-04-24T03:17:38;99506.00;;;13.90
38114;BMP180;23926;53.222;6.354;2023-04-24T03:20:04;99519.00;;;13.90
38114;BMP180;23926;53.222;6.354;2023-04-24T03:22:30;99515.00;;;13.90
38114;BMP180;23926;53.222;6.354;2023-04-24T03:24:57;99517.00;;;13.90
38114;BMP180;23926;53.222;6.354;2023-04-24T03:27:23;99515.00;;;13.90
38114;BMP180;23926;53.222;6.354;2023-04-24T03:29:48;99526.00;;;13.80
38114;BMP180;23926;53.222;6.354;2023-04-24T03:32:19;99515.00;;;13.90
38114;BMP180;23926;53.222;6.354;2023-04-24T03:34:44;99527.00;;;13.90
38114;BMP180;23926;53.222;6.354;2023-04-24T03:37:09;99529.00;;;13.90
38114;BMP180;23926;53.222;6.354;2023-04-24T03:39:35;99520.00;;;13.90
38114;BMP180;23926;53.222;6.354;2023-04-24T03:42:00;99528.00;;;13.90
38114;BMP180;23926;53.222;6.354;2023-04-24T03:44:26;99532.00;;;13.90
38114;BMP180;23926;53.222;6.354;2023-04-24T03:46:52;99522.00;;;13.90
38114;BMP180;23926;53.222;6.354;2023-04-24T03:49:17;99522.00;;;13.90
38114;BMP180;23926;53.222;6.354;2023-04-24T03:51:42;99522.00;;;14.00
38114;BMP180;23926;53.222;6.354;2023-04-24T03:54:08;99528.00;;;14.00
38114;BMP180;23926;53.222;6.354;2023-04-24T03:56:33;99517.00;;;14.00
38114;BMP180;23926;53.222;6.354;2023-04-24T03:58:59;99528.00;;;14.00
38114;BMP180;23926;53.222;6.354;2023-04-24T04:01:24;99532.00;;;14.00
38114;BMP180;23926;53.222;6.354;2023-04-24T04:03:50;99536.00;;;14.00
38114;BMP180;23926;53.222;6.354;2023-04-24T04:06:15;99533.00;;;14.00
38114;BMP180;23926;53.222;6.354;2023-04-24T04:08:40;99539.00;;;14.00
38114;BMP180;23926;53.222;6.354;2023-04-24T04:11:06;99536.00;;;14.10
38114;BMP180;23926;53.222;6.354;2023-04-24T04:13:31;99547.00;;;14.00
38114;BMP180;23926;53.222;6.354;2023-04-24T04:15:57;99546.00;;;14.10
38114;BMP180;23926;53.222;6.354;2023-04-24T04:18:22;99547.00;;;13.80
38114;BMP180;23926;53.222;6.354;2023-04-24T04:20:53;99551.00;;;13.70
38114;BMP180;23926;53.222;6.354;2023-04-24T04:23:19;99554.00;;;13.40
38114;BMP180;23926;53.222;6.354;2023-04-24T04:25:44;99572.00;;;13.30
38114;BMP180;23926;53.222;6.354;2023-04-24T04:28:10;99566.00;;;13.30
38114;BMP180;23926;53.222;6.354;2023-04-24T04:30:35;99576.00;;;13.20
38114;BMP180;23926;53.222;6.354;2023-04-24T04:33:03;99548.00;;;13.20
38114;BMP180;23926;53.222;6.354;2023-04-24T04:35:28;99573.00;;;13.00
38114;BMP180;23926;53.222;6.354;2023-04-24T04:37:54;99578.00;;;12.90
38114;BMP180;23926;53.222;6.354;2023-04-24T04:40:19;99577.00;;;12.90
38114;BMP180;23926;53.222;6.354;2023-04-24T04:42:45;99580.00;;;12.90
38114;BMP180;23926;53.222;6.354;2023-04-24T04:45:11;99583.00;;;12.80
38114;BMP180;23926;53.222;6.354;2023-04-24T04:47:37;99579.00;;;12.80
38114;BMP180;23926;53.222;6.354;2023-04-24T04:50:03;99575.00;;;12.80
38114;BMP180;23926;53.222;6.354;2023-04-24T04:52:29;99600.00;;;12.80
38114;BMP180;23926;53.222;6.354;2023-04-24T04:54:55;99585.00;;;12.70
38114;BMP180;23926;53.222;6.354;2023-04-24T04:57:20;99591.00;;;12.80
38114;BMP180;23926;53.222;6.354;2023-04-24T04:59:46;99591.00;;;12.70
38114;BMP180;23926;53.222;6.354;2023-04-24T05:02:12;99588.00;;;12.60
38114;BMP180;23926;53.222;6.354;2023-04-24T05:04:37;99599.00;;;12.60
38114;BMP180;23926;53.222;6.354;2023-04-24T05:07:03;99614.00;;;12.50
38114;BMP180;23926;53.222;6.354;2023-04-24T05:09:28;99602.00;;;12.50
38114;BMP180;23926;53.222;6.354;2023-04-24T05:11:55;99608.00;;;12.40
38114;BMP180;23926;53.222;6.354;2023-04-24T05:14:21;99608.00;;;12.40
38114;BMP180;23926;53.222;6.354;2023-04-24T05:16:47;99604.00;;;12.40
38114;BMP180;23926;53.222;6.354;2023-04-24T05:19:12;99619.00;;;12.30
38114;BMP180;23926;53.222;6.354;2023-04-24T05:21:39;99621.00;;;12.20
38114;BMP180;23926;53.222;6.354;2023-04-24T05:24:05;99615.00;;;12.20
38114;BMP180;23926;53.222;6.354;2023-04-24T05:26:31;99631.00;;;12.40
38114;BMP180;23926;53.222;6.354;2023-04-24T05:28:56;99634.00;;;12.30
38114;BMP180;23926;53.222;6.354;2023-04-24T05:31:22;99635.00;;;12.30
38114;BMP180;23926;53.222;6.354;2023-04-24T05:33:47;99633.00;;;12.30
38114;BMP180;23926;53.222;6.354;2023-04-24T05:36:13;99647.00;;;12.40
38114;BMP180;23926;53.222;6.354;2023-04-24T05:38:38;99649.00;;;12.20
38114;BMP180;23926;53.222;6.354;2023-04-24T05:41:04;99645.00;;;12.20
38114;BMP180;23926;53.222;6.354;2023-04-24T05:43:29;99654.00;;;12.10
38114;BMP180;23926;53.222;6.354;2023-04-24T05:45:54;99658.00;;;12.10
38114;BMP180;23926;53.222;6.354;2023-04-24T05:48:20;99659.00;;;12.20
38114;BMP180;23926;53.222;6.354;2023-04-24T05:50:47;99663.00;;;12.30
38114;BMP180;23926;53.222;6.354;2023-04-24T05:53:13;99663.00;;;12.30
38114;BMP180;23926;53.222;6.354;2023-04-24T05:55:39;99680.00;;;12.50
38114;BMP180;23926;53.222;6.354;2023-04-24T05:58:05;99675.00;;;12.50
38114;BMP180;23926;53.222;6.354;2023-04-24T06:00:31;99679.00;;;12.30
38114;BMP180;23926;53.222;6.354;2023-04-24T06:02:56;99677.00;;;12.30
38114;BMP180;23926;53.222;6.354;2023-04-24T06:05:22;99671.00;;;12.20
38114;BMP180;23926;53.222;6.354;2023-04-24T06:07:48;99687.00;;;12.30
38114;BMP180;23926;53.222;6.354;2023-04-24T06:10:13;99681.00;;;12.30
38114;BMP180;23926;53.222;6.354;2023-04-24T06:12:39;99673.00;;;12.30
38114;BMP180;23926;53.222;6.354;2023-04-24T06:15:05;99702.00;;;12.20
38114;BMP180;23926;53.222;6.354;2023-04-24T06:17:31;99706.00;;;12.30
38114;BMP180;23926;53.222;6.354;2023-04-24T06:19:57;99705.00;;;12.40
38114;BMP180;23926;53.222;6.354;2023-04-24T06:22:23;99708.00;;;12.40
38114;BMP180;23926;53.222;6.354;2023-04-24T06:24:48;99700.00;;;12.40
38114;BMP180;23926;53.222;6.354;2023-04-24T06:27:14;99715.00;;;12.40
38114;BMP180;23926;53.222;6.354;2023-04-24T06:29:39;99713.00;;;12.50
38114;BMP180;23926;53.222;6.354;2023-04-24T06:32:05;99716.00;;;12.40
38114;BMP180;23926;53.222;6.354;2023-04-24T06:34:30;99725.00;;;12.40
38114;BMP180;23926;53.222;6.354;2023-04-24T06:36:57;99723.00;;;12.40
38114;BMP180;23926;53.222;6.354;2023-04-24T06:39:23;99731.00;;;12.50
38114;BMP180;23926;53.222;6.354;2023-04-24T06:41:48;99734.00;;;12.60
38114;BMP180;23926;53.222;6.354;2023-04-24T06:44:14;99727.00;;;12.70
38114;BMP180;23926;53.222;6.354;2023-04-24T06:46:40;99736.00;;;12.70
38114;BMP180;23926;53.222;6.354;2023-04-24T06:49:06;99739.00;;;12.80
38114;BMP180;23926;53.222;6.354;2023-04-24T06:51:32;99733.00;;;12.60
38114;BMP180;23926;53.222;6.354;2023-04-24T06:53:58;99747.00;;;12.60
38114;BMP180;23926;53.222;6.354;2023-04-24T06:56:25;99745.00;;;12.60
38114;BMP180;23926;53.222;6.354;2023-04-24T06:58:51;99744.00;;;12.60
38114;BMP180;23926;53.222;6.354;2023-04-24T07:01:17;99762.00;;;12.60
38114;BMP180;23926;53.222;6.354;2023-04-24T07:03:43;99743.00;;;12.60
38114;BMP180;23926;53.222;6.354;2023-04-24T07:06:09;99761.00;;;12.40
38114;BMP180;23926;53.222;6.354;2023-04-24T07:08:36;99757.00;;;12.30
38114;BMP180;23926;53.222;6.354;2023-04-24T07:11:03;99762.00;;;12.20
38114;BMP180;23926;53.222;6.354;2023-04-24T07:13:28;99764.00;;;12.20
38114;BMP180;23926;53.222;6.354;2023-04-24T07:15:54;99767.00;;;12.00
38114;BMP180;23926;53.222;6.354;2023-04-24T07:18:21;99782.00;;;12.10
38114;BMP180;23926;53.222;6.354;2023-04-24T07:20:47;99785.00;;;12.00
38114;BMP180;23926;53.222;6.354;2023-04-24T07:23:13;99772.00;;;11.90
38114;BMP180;23926;53.222;6.354;2023-04-24T07:25:38;99792.00;;;12.00
38114;BMP180;23926;53.222;6.354;2023-04-24T07:28:04;99803.00;;;11.90
38114;BMP180;23926;53.222;6.354;2023-04-24T07:30:30;99791.00;;;12.00
38114;BMP180;23926;53.222;6.354;2023-04-24T07:32:58;99801.00;;;12.10
38114;BMP180;23926;53.222;6.354;2023-04-24T07:35:23;99800.00;;;12.10
38114;BMP180;23926;53.222;6.354;2023-04-24T07:37:50;99801.00;;;12.10
38114;BMP180;23926;53.222;6.354;2023-04-24T07:40:16;99811.00;;;12.00
38114;BMP180;23926;53.222;6.354;2023-04-24T07:42:41;99824.00;;;11.80
38114;BMP180;23926;53.222;6.354;2023-04-24T07:45:07;99827.00;;;11.70
38114;BMP180;23926;53.222;6.354;2023-04-24T07:47:33;99830.00;;;11.70
38114;BMP180;23926;53.222;6.354;2023-04-24T07:49:59;99842.00;;;11.70
38114;BMP180;23926;53.222;6.354;2023-04-24T07:52:24;99850.00;;;11.80
38114;BMP180;23926;53.222;6.354;2023-04-24T07:54:50;99845.00;;;11.80
38114;BMP180;23926;53.222;6.354;2023-04-24T07:57:16;99831.00;;;11.70
38114;BMP180;23926;53.222;6.354;2023-04-24T07:59:41;99836.00;;;11.70
38114;BMP180;23926;53.222;6.354;2023-04-24T08:02:07;99849.00;;;11.70
38114;BMP180;23926;53.222;6.354;2023-04-24T08:04:33;99853.00;;;11.80
38114;BMP180;23926;53.222;6.354;2023-04-24T08:06:58;99853.00;;;11.60
38114;BMP180;23926;53.222;6.354;2023-04-24T08:09:24;99859.00;;;11.50
38114;BMP180;23926;53.222;6.354;2023-04-24T08:11:49;99865.00;;;11.60
38114;BMP180;23926;53.222;6.354;2023-04-24T08:14:15;99879.00;;;11.80
38114;BMP180;23926;53.222;6.354;2023-04-24T08:16:40;99879.00;;;11.80
38114;BMP180;23926;53.222;6.354;2023-04-24T08:19:06;99877.00;;;11.70
38114;BMP180;23926;53.222;6.354;2023-04-24T08:21:32;99884.00;;;11.80
38114;BMP180;23926;53.222;6.354;2023-04-24T08:23:57;99896.00;;;11.80
38114;BMP180;23926;53.222;6.354;2023-04-24T08:26:23;99892.00;;;11.70
38114;BMP180;23926;53.222;6.354;2023-04-24T08:28:48;99903.00;;;11.60
38114;BMP180;23926;53.222;6.354;2023-04-24T08:31:14;99899.00;;;11.60
38114;BMP180;23926;53.222;6.354;2023-04-24T08:33:40;99910.00;;;11.60
38114;BMP180;23926;53.222;6.354;2023-04-24T08:36:06;99917.00;;;11.60
38114;BMP180;23926;53.222;6.354;2023-04-24T08:38:32;99903.00;;;11.60
38114;BMP180;23926;53.222;6.354;2023-04-24T08:41:00;99917.00;;;11.70
38114;BMP180;23926;53.222;6.354;2023-04-24T08:43:26;99916.00;;;11.70
38114;BMP180;23926;53.222;6.354;2023-04-24T08:45:52;99927.00;;;11.60
38114;BMP180;23926;53.222;6.354;2023-04-24T08:48:18;99928.00;;;11.80
38114;BMP180;23926;53.222;6.354;2023-04-24T08:50:44;99953.00;;;11.80
38114;BMP180;23926;53.222;6.354;2023-04-24T08:53:10;99936.00;;;11.80
38114;BMP180;23926;53.222;6.354;2023-04-24T08:55:37;99935.00;;;11.80
38114;BMP180;23926;53.222;6.354;2023-04-24T08:58:03;99936.00;;;11.80
38114;BMP180;23926;53.222;6.354;2023-04-24T09:00:29;99944.00;;;11.80
38114;BMP180;23926;53.222;6.354;2023-04-24T09:02:55;99940.00;;;11.90
38114;BMP180;23926;53.222;6.354;2023-04-24T09:05:22;99955.00;;;12.00
38114;BMP180;23926;53.222;6.354;2023-04-24T09:07:59;99948.00;;;11.90
38114;BMP180;23926;53.222;6.354;2023-04-24T09:10:27;99952.00;;;11.80
38114;BMP180;23926;53.222;6.354;2023-04-24T09:12:56;99954.00;;;11.80
38114;BMP180;23926;53.222;6.354;2023-04-24T09:15:23;99968.00;;;11.80
38114;BMP180;23926;53.222;6.354;2023-04-24T09:17:49;99967.00;;;11.90
38114;BMP180;23926;53.222;6.354;2023-04-24T09:20:15;99982.00;;;11.70
38114;BMP180;23926;53.222;6.354;2023-04-24T09:22:42;99985.00;;;11.60
38114;BMP180;23926;53.222;6.354;2023-04-24T09:25:08;99982.00;;;11.60
38114;BMP180;23926;53.222;6.354;2023-04-24T09:27:34;99984.00;;;11.60
38114;BMP180;23926;53.222;6.354;2023-04-24T09:30:00;99980.00;;;11.60
38114;BMP180;23926;53.222;6.354;2023-04-24T09:32:26;99992.00;;;11.60
38114;BMP180;23926;53.222;6.354;2023-04-24T09:35:12;100003.00;;;11.70
38114;BMP180;23926;53.222;6.354;2023-04-24T09:37:43;100006.00;;;11.60
38114;BMP180;23926;53.222;6.354;2023-04-24T09:40:14;99989.00;;;11.80
38114;BMP180;23926;53.222;6.354;2023-04-24T09:43:00;100014.00;;;11.90
38114;BMP180;23926;53.222;6.354;2023-04-24T09:45:28;100021.00;;;12.00
38114;BMP180;23926;53.222;6.354;2023-04-24T09:48:00;100015.00;;;12.20
38114;BMP180;23926;53.222;6.354;2023-04-24T09:50:25;100019.00;;;12.30
38114;BMP180;23926;53.222;6.354;2023-04-24T09:52:59;100008.00;;;12.30
38114;BMP180;23926;53.222;6.354;2023-04-24T09:55:26;100023.00;;;12.40
38114;BMP180;23926;53.222;6.354;2023-04-24T09:57:54;100031.00;;;12.70
38114;BMP180;23926;53.222;6.354;2023-04-24T10:00:29;100034.00;;;12.80
38114;BMP180;23926;53.222;6.354;2023-04-24T10:03:03;100048.00;;;12.90
38114;BMP180;23926;53.222;6.354;2023-04-24T10:05:32;100051.00;;;12.90
38114;BMP180;23926;53.222;6.354;2023-04-24T10:08:18;100030.00;;;12.90
38114;BMP180;23926;53.222;6.354;2023-04-24T10:10:44;100055.00;;;12.90
38114;BMP180;23926;53.222;6.354;2023-04-24T10:13:12;100068.00;;;13.00
38114;BMP180;23926;53.222;6.354;2023-04-24T10:15:38;100074.00;;;12.90
38114;BMP180;23926;53.222;6.354;2023-04-24T10:18:04;100062.00;;;13.00
38114;BMP180;23926;53.222;6.354;2023-04-24T10:20:32;100069.00;;;13.00
38114;BMP180;23926;53.222;6.354;2023-04-24T10:22:59;100067.00;;;12.80
38114;BMP180;23926;53.222;6.354;2023-04-24T10:25:33;100075.00;;;12.80
38114;BMP180;23926;53.222;6.354;2023-04-24T10:28:00;100088.00;;;13.00
38114;BMP180;23926;53.222;6.354;2023-04-24T10:30:27;100087.00;;;12.80
38114;BMP180;23926;53.222;6.354;2023-04-24T10:32:53;100085.00;;;12.80
38114;BMP180;23926;53.222;6.354;2023-04-24T10:35:19;100105.00;;;12.70
38114;BMP180;23926;53.222;6.354;2023-04-24T10:37:54;100094.00;;;12.70
38114;BMP180;23926;53.222;6.354;2023-04-24T10:40:35;100096.00;;;12.80
38114;BMP180;23926;53.222;6.354;2023-04-24T10:43:05;100100.00;;;12.80
38114;BMP180;23926;53.222;6.354;2023-04-24T10:45:33;100094.00;;;12.80
38114;BMP180;23926;53.222;6.354;2023-04-24T10:48:01;100114.00;;;12.70
38114;BMP180;23926;53.222;6.354;2023-04-24T10:50:29;100116.00;;;12.80
38114;BMP180;23926;53.222;6.354;2023-04-24T10:53:06;100114.00;;;12.70
38114;BMP180;23926;53.222;6.354;2023-04-24T10:55:41;100112.00;;;12.80
38114;BMP180;23926;53.222;6.354;2023-04-24T10:58:07;100120.00;;;12.80
38114;BMP180;23926;53.222;6.354;2023-04-24T11:00:36;100124.00;;;12.80
38114;BMP180;23926;53.222;6.354;2023-04-24T11:03:04;100130.00;;;12.90
38114;BMP180;23926;53.222;6.354;2023-04-24T11:08:22;100151.00;;;13.10
38114;BMP180;23926;53.222;6.354;2023-04-24T11:10:58;100147.00;;;13.20
38114;BMP180;23926;53.222;6.354;2023-04-24T11:13:31;100141.00;;;13.30
38114;BMP180;23926;53.222;6.354;2023-04-24T11:16:27;100149.00;;;13.10
38114;BMP180;23926;53.222;6.354;2023-04-24T11:19:06;100145.00;;;13.00
38114;BMP180;23926;53.222;6.354;2023-04-24T11:21:39;100147.00;;;13.00
38114;BMP180;23926;53.222;6.354;2023-04-24T11:24:25;100145.00;;;13.10
38114;BMP180;23926;53.222;6.354;2023-04-24T11:26:53;100151.00;;;12.90
38114;BMP180;23926;53.222;6.354;2023-04-24T11:29:20;100143.00;;;13.20
38114;BMP180;23926;53.222;6.354;2023-04-24T11:31:46;100147.00;;;13.50
38114;BMP180;23926;53.222;6.354;2023-04-24T11:34:15;100158.00;;;13.30
38114;BMP180;23926;53.222;6.354;2023-04-24T11:36:45;100154.00;;;13.20
38114;BMP180;23926;53.222;6.354;2023-04-24T11:39:11;100162.00;;;13.10
38114;BMP180;23926;53.222;6.354;2023-04-24T11:41:37;100183.00;;;13.20
38114;BMP180;23926;53.222;6.354;2023-04-24T11:44:06;100176.00;;;12.80
38114;BMP180;23926;53.222;6.354;2023-04-24T11:46:32;100167.00;;;12.70
38114;BMP180;23926;53.222;6.354;2023-04-24T11:48:58;100179.00;;;12.60
38114;BMP180;23926;53.222;6.354;2023-04-24T11:51:28;100183.00;;;12.40
38114;BMP180;23926;53.222;6.354;2023-04-24T11:53:54;100192.00;;;12.20
38114;BMP180;23926;53.222;6.354;2023-04-24T11:56:24;100187.00;;;12.20
38114;BMP180;23926;53.222;6.354;2023-04-24T11:58:52;100199.00;;;12.40
38114;BMP180;23926;53.222;6.354;2023-04-24T12:01:18;100204.00;;;12.30
38114;BMP180;23926;53.222;6.354;2023-04-24T12:03:48;100205.00;;;12.40
38114;BMP180;23926;53.222;6.354;2023-04-24T12:06:13;100197.00;;;12.60
38114;BMP180;23926;53.222;6.354;2023-04-24T12:08:39;100202.00;;;12.80
38114;BMP180;23926;53.222;6.354;2023-04-24T12:11:06;100211.00;;;12.90
38114;BMP180;23926;53.222;6.354;2023-04-24T12:13:33;100209.00;;;13.20
38114;BMP180;23926;53.222;6.354;2023-04-24T12:15:58;100213.00;;;13.20
38114;BMP180;23926;53.222;6.354;2023-04-24T12:18:24;100217.00;;;13.30
38114;BMP180;23926;53.222;6.354;2023-04-24T12:20:50;100214.00;;;13.30
38114;BMP180;23926;53.222;6.354;2023-04-24T12:23:16;100221.00;;;13.20
38114;BMP180;23926;53.222;6.354;2023-04-24T12:25:42;100227.00;;;13.10
38114;BMP180;23926;53.222;6.354;2023-04-24T12:28:10;100213.00;;;12.90
38114;BMP180;23926;53.222;6.354;2023-04-24T12:30:41;100234.00;;;12.70
38114;BMP180;23926;53.222;6.354;2023-04-24T12:33:09;100244.00;;;12.70
38114;BMP180;23926;53.222;6.354;2023-04-24T12:35:34;100233.00;;;12.90
38114;BMP180;23926;53.222;6.354;2023-04-24T12:38:12;100233.00;;;13.10
38114;BMP180;23926;53.222;6.354;2023-04-24T12:40:38;100236.00;;;13.20
38114;BMP180;23926;53.222;6.354;2023-04-24T12:43:17;100242.00;;;13.30
38114;BMP180;23926;53.222;6.354;2023-04-24T12:45:42;100230.00;;;13.10
38114;BMP180;23926;53.222;6.354;2023-04-24T12:48:08;100255.00;;;12.90
38114;BMP180;23926;53.222;6.354;2023-04-24T12:50:33;100244.00;;;12.70
38114;BMP180;23926;53.222;6.354;2023-04-24T12:52:59;100245.00;;;12.90
38114;BMP180;23926;53.222;6.354;2023-04-24T12:55:25;100249.00;;;12.60
38114;BMP180;23926;53.222;6.354;2023-04-24T12:57:50;100249.00;;;12.60
38114;BMP180;23926;53.222;6.354;2023-04-24T13:00:17;100236.00;;;12.60
38114;BMP180;23926;53.222;6.354;2023-04-24T13:02:42;100256.00;;;12.50
38114;BMP180;23926;53.222;6.354;2023-04-24T13:05:08;100263.00;;;12.70
38114;BMP180;23926;53.222;6.354;2023-04-24T13:07:34;100247.00;;;12.50
38114;BMP180;23926;53.222;6.354;2023-04-24T13:09:59;100249.00;;;12.50
38114;BMP180;23926;53.222;6.354;2023-04-24T13:12:25;100254.00;;;12.50
38114;BMP180;23926;53.222;6.354;2023-04-24T13:14:51;100280.00;;;12.60
38114;BMP180;23926;53.222;6.354;2023-04-24T13:17:17;100257.00;;;12.70
38114;BMP180;23926;53.222;6.354;2023-04-24T13:19:43;100262.00;;;12.80
38114;BMP180;23926;53.222;6.354;2023-04-24T13:22:11;100270.00;;;12.90
38114;BMP180;23926;53.222;6.354;2023-04-24T13:24:37;100271.00;;;13.10
38114;BMP180;23926;53.222;6.354;2023-04-24T13:27:03;100258.00;;;13.10
38114;BMP180;23926;53.222;6.354;2023-04-24T13:29:29;100268.00;;;13.30
38114;BMP180;23926;53.222;6.354;2023-04-24T13:31:55;100279.00;;;13.40
38114;BMP180;23926;53.222;6.354;2023-04-24T13:34:24;100277.00;;;13.10
38114;BMP180;23926;53.222;6.354;2023-04-24T13:36:54;100270.00;;;12.90
38114;BMP180;23926;53.222;6.354;2023-04-24T13:39:20;100279.00;;;12.70
38114;BMP180;23926;53.222;6.354;2023-04-24T13:41:45;100285.00;;;12.80
38114;BMP180;23926;53.222;6.354;2023-04-24T13:44:13;100288.00;;;12.70
38114;BMP180;23926;53.222;6.354;2023-04-24T13:46:39;100282.00;;;12.50
38114;BMP180;23926;53.222;6.354;2023-04-24T13:49:05;100286.00;;;12.20
38114;BMP180;23926;53.222;6.354;2023-04-24T13:51:30;100293.00;;;11.90
38114;BMP180;23926;53.222;6.354;2023-04-24T13:53:55;100302.00;;;11.70
38114;BMP180;23926;53.222;6.354;2023-04-24T13:56:21;100293.00;;;11.60
38114;BMP180;23926;53.222;6.354;2023-04-24T13:58:47;100295.00;;;11.70
38114;BMP180;23926;53.222;6.354;2023-04-24T14:01:14;100291.00;;;11.80
38114;BMP180;23926;53.222;6.354;2023-04-24T14:03:41;100293.00;;;11.80